Time;durP1;ratioP1;P1;durP2;ratioP2;P2;SDS_P1;SDS_P2;PMS_P1;PMS_P2;Temp;Humidity;BMP_temperature;BMP_pressure;BME280_temperature;BME280_humidity;BME280_pressure;Samples;Min_cycle;Max_cycle;Signal;HPM_P1;HPM_P2
2023/09/03 00:01:44;;;;;;;9.57;8.23;;;;;;;;;;5069961;28;20059;-65
2023/09/03 00:04:10;;;;;;;10.52;8.10;;;;;;;;;;5070680;28;20091;-65
2023/09/03 00:06:36;;;;;;;11.70;7.82;;;;;;;;;;5069173;28;20402;-65
2023/09/03 00:09:04;;;;;;;13.18;9.07;;;;;;;;;;5070148;28;20056;-65
2023/09/03 00:11:30;;;;;;;10.90;9.00;;;;;;;;;;5070403;28;20119;-65
2023/09/03 00:13:56;;;;;;;10.10;8.82;;;;;;;;;;5070454;28;20395;-65
2023/09/03 00:16:22;;;;;;;13.65;9.48;;;;;;;;;;5070014;28;20508;-65
2023/09/03 00:18:48;;;;;;;9.70;8.00;;;;;;;;;;5070087;28;20036;-65
2023/09/03 00:21:14;;;;;;;13.55;9.25;;;;;;;;;;5068690;28;20064;-65
2023/09/03 00:23:40;;;;;;;13.23;9.20;;;;;;;;;;5069797;28;20487;-65
2023/09/03 00:26:06;;;;;;;10.43;8.35;;;;;;;;;;5081770;28;20126;-65
2023/09/03 00:28:32;;;;;;;12.65;8.82;;;;;;;;;;5088682;28;20052;-65
2023/09/03 00:31:07;;;;;;;11.98;9.20;;;;;;;;;;5089930;28;20048;-65
2023/09/03 00:33:33;;;;;;;11.77;8.55;;;;;;;;;;5088975;28;20210;-65
2023/09/03 00:36:01;;;;;;;11.20;8.50;;;;;;;;;;5088885;28;20173;-65
2023/09/03 00:38:27;;;;;;;11.82;8.68;;;;;;;;;;5088675;28;20046;-65
2023/09/03 00:40:53;;;;;;;11.23;8.70;;;;;;;;;;5090270;28;20394;-65
2023/09/03 00:43:19;;;;;;;12.82;9.18;;;;;;;;;;5090207;28;20322;-65
2023/09/03 00:45:46;;;;;;;10.68;8.90;;;;;;;;;;5089920;28;20082;-65
2023/09/03 00:48:13;;;;;;;12.25;8.77;;;;;;;;;;5088624;28;20044;-65
2023/09/03 00:50:39;;;;;;;12.00;8.10;;;;;;;;;;5088643;28;20048;-65
2023/09/03 00:53:06;;;;;;;12.90;8.43;;;;;;;;;;5077502;28;20051;-65
2023/09/03 00:55:32;;;;;;;12.27;9.00;;;;;;;;;;5070048;28;20041;-65
2023/09/03 00:57:59;;;;;;;12.63;8.77;;;;;;;;;;5069842;28;20040;-65
2023/09/03 01:00:25;;;;;;;10.50;8.15;;;;;;;;;;5068447;28;20470;-65
2023/09/03 01:02:53;;;;;;;9.70;8.02;;;;;;;;;;5069675;28;20040;-65
2023/09/03 01:05:19;;;;;;;12.23;9.50;;;;;;;;;;5069770;28;20094;-65
2023/09/03 01:07:45;;;;;;;11.55;8.73;;;;;;;;;;5069075;28;20469;-65
2023/09/03 01:10:11;;;;;;;12.68;9.77;;;;;;;;;;5073101;28;20047;-65
2023/09/03 01:12:47;;;;;;;10.65;7.90;;;;;;;;;;5073607;28;20071;-65
2023/09/03 01:15:15;;;;;;;13.02;9.02;;;;;;;;;;5073146;28;20139;-65
2023/09/03 01:17:46;;;;;;;11.00;8.18;;;;;;;;;;5072357;28;20039;-65
2023/09/03 01:20:17;;;;;;;11.73;7.88;;;;;;;;;;5073460;28;20047;-65
2023/09/03 01:23:02;;;;;;;10.07;8.05;;;;;;;;;;5073073;28;20125;-65
2023/09/03 01:25:47;;;;;;;10.52;8.63;;;;;;;;;;5079686;28;20569;-65
2023/09/03 01:28:19;;;;;;;10.75;8.55;;;;;;;;;;5093513;28;20440;-65
2023/09/03 01:30:45;;;;;;;11.52;8.55;;;;;;;;;;5093250;28;20063;-65
2023/09/03 01:33:12;;;;;;;9.95;8.40;;;;;;;;;;5091930;28;20118;-65
2023/09/03 01:35:38;;;;;;;11.68;8.65;;;;;;;;;;5093508;28;20040;-65
2023/09/03 01:38:05;;;;;;;12.35;9.60;;;;;;;;;;5093194;28;20078;-65
2023/09/03 01:40:32;;;;;;;13.35;9.20;;;;;;;;;;5093711;28;20066;-65
2023/09/03 01:42:58;;;;;;;12.30;9.07;;;;;;;;;;5093453;28;20043;-65
2023/09/03 01:45:30;;;;;;;13.07;9.73;;;;;;;;;;5093052;28;20040;-65
2023/09/03 01:48:14;;;;;;;15.10;9.85;;;;;;;;;;5093195;28;20548;-65
2023/09/03 01:50:40;;;;;;;10.35;8.63;;;;;;;;;;5091888;28;20044;-65
2023/09/03 01:53:14;;;;;;;13.38;9.80;;;;;;;;;;5081369;28;20086;-65
2023/09/03 01:55:42;;;;;;;11.82;9.50;;;;;;;;;;5072933;28;20044;-65
2023/09/03 01:58:09;;;;;;;11.25;9.35;;;;;;;;;;5073038;28;20070;-65
2023/09/03 02:00:35;;;;;;;13.27;8.80;;;;;;;;;;5071564;28;20521;-65
2023/09/03 02:03:03;;;;;;;12.07;8.70;;;;;;;;;;5072840;28;20475;-65
2023/09/03 02:05:29;;;;;;;10.30;8.30;;;;;;;;;;5072131;28;20048;-65
2023/09/03 02:07:55;;;;;;;11.45;9.32;;;;;;;;;;5070870;28;20564;-65
2023/09/03 02:10:21;;;;;;;11.38;8.88;;;;;;;;;;5072551;28;20494;-65
2023/09/03 02:12:47;;;;;;;12.13;8.73;;;;;;;;;;5070996;28;20046;-65
2023/09/03 02:15:13;;;;;;;12.02;9.80;;;;;;;;;;5072088;28;20041;-65
2023/09/03 02:17:39;;;;;;;12.00;9.82;;;;;;;;;;5072556;28;20047;-65
2023/09/03 02:20:06;;;;;;;10.80;8.77;;;;;;;;;;5054417;28;20433;-65
2023/09/03 02:22:32;;;;;;;11.43;9.40;;;;;;;;;;5071707;28;20044;-65
2023/09/03 02:24:58;;;;;;;11.05;9.25;;;;;;;;;;5074444;28;20086;-65
2023/09/03 02:27:24;;;;;;;12.13;9.60;;;;;;;;;;5092526;28;20062;-65
2023/09/03 02:29:50;;;;;;;13.10;9.57;;;;;;;;;;5091965;28;20492;-65
2023/09/03 02:32:16;;;;;;;12.02;8.75;;;;;;;;;;5092386;28;20094;-65
2023/09/03 02:34:42;;;;;;;11.00;8.55;;;;;;;;;;5090666;28;20063;-65
2023/09/03 02:37:08;;;;;;;12.82;9.27;;;;;;;;;;5091743;28;20402;-65
2023/09/03 02:39:34;;;;;;;10.30;8.73;;;;;;;;;;5092299;28;20039;-65
2023/09/03 02:42:00;;;;;;;11.55;8.80;;;;;;;;;;5092256;28;20080;-65
2023/09/03 02:44:25;;;;;;;14.38;9.10;;;;;;;;;;5091749;28;20043;-65
2023/09/03 02:46:52;;;;;;;12.73;9.85;;;;;;;;;;5090885;28;20062;-65
2023/09/03 02:49:18;;;;;;;11.38;9.02;;;;;;;;;;5090482;28;20043;-65
2023/09/03 02:51:44;;;;;;;12.15;8.75;;;;;;;;;;5090264;28;20122;-65
2023/09/03 02:54:10;;;;;;;11.98;9.20;;;;;;;;;;5070553;28;20447;-65
2023/09/03 02:56:36;;;;;;;12.35;9.55;;;;;;;;;;5071808;28;20048;-65
2023/09/03 02:59:02;;;;;;;11.60;9.15;;;;;;;;;;5071324;28;20129;-65
2023/09/03 03:01:28;;;;;;;10.32;8.27;;;;;;;;;;5071539;28;20075;-65
2023/09/03 03:03:54;;;;;;;13.07;8.38;;;;;;;;;;5053449;28;20114;-65
2023/09/03 03:06:20;;;;;;;9.15;7.60;;;;;;;;;;5070932;28;20044;-65
2023/09/03 03:08:46;;;;;;;9.27;7.78;;;;;;;;;;5071432;28;20391;-65
2023/09/03 03:11:14;;;;;;;9.65;7.68;;;;;;;;;;5070371;28;20254;-65
2023/09/03 03:13:40;;;;;;;9.43;6.90;;;;;;;;;;5071001;28;20048;-65
2023/09/03 03:16:10;;;;;;;10.07;7.80;;;;;;;;;;5071453;28;20041;-65
2023/09/03 03:18:37;;;;;;;11.93;7.65;;;;;;;;;;5069793;28;20041;-65
2023/09/03 03:21:06;;;;;;;9.05;7.80;;;;;;;;;;5069598;28;20517;-65
2023/09/03 03:23:33;;;;;;;11.77;8.43;;;;;;;;;;5071317;28;20072;-65
2023/09/03 03:26:00;;;;;;;11.90;8.60;;;;;;;;;;5080155;28;20134;-65
2023/09/03 03:28:26;;;;;;;11.07;8.00;;;;;;;;;;5089187;28;20127;-65
2023/09/03 03:30:52;;;;;;;11.18;8.20;;;;;;;;;;5090923;28;20680;-65
2023/09/03 03:33:17;;;;;;;8.88;7.70;;;;;;;;;;5091009;28;20044;-65
2023/09/03 03:35:43;;;;;;;10.73;8.40;;;;;;;;;;5089592;28;20040;-65
2023/09/03 03:38:09;;;;;;;11.18;8.20;;;;;;;;;;5072924;28;20044;-65
2023/09/03 03:40:35;;;;;;;9.98;8.18;;;;;;;;;;5089604;28;20040;-65
2023/09/03 03:43:01;;;;;;;11.35;8.68;;;;;;;;;;5090853;28;20480;-65
2023/09/03 03:45:27;;;;;;;23.25;8.75;;;;;;;;;;5090064;28;20046;-65
2023/09/03 03:47:53;;;;;;;12.82;7.40;;;;;;;;;;5090999;28;20398;-65
2023/09/03 03:50:19;;;;;;;36.50;8.23;;;;;;;;;;5090411;28;20134;-65
2023/09/03 03:52:45;;;;;;;44.42;7.93;;;;;;;;;;5081589;28;20044;-65
2023/09/03 03:55:11;;;;;;;7.35;6.13;;;;;;;;;;5070794;28;20101;-65
2023/09/03 03:57:37;;;;;;;11.90;6.68;;;;;;;;;;5069180;28;20040;-65
2023/09/03 04:00:03;;;;;;;11.90;7.07;;;;;;;;;;5069297;28;20069;-65
2023/09/03 04:02:29;;;;;;;6.82;6.00;;;;;;;;;;5070818;28;20166;-65
2023/09/03 04:04:55;;;;;;;11.00;6.40;;;;;;;;;;5069934;28;20123;-65
2023/09/03 04:07:22;;;;;;;7.20;6.32;;;;;;;;;;5070696;28;20041;-65
2023/09/03 04:09:48;;;;;;;8.40;6.80;;;;;;;;;;5070317;28;20052;-65
2023/09/03 04:12:14;;;;;;;10.35;6.72;;;;;;;;;;5068641;28;20075;-65
2023/09/03 04:14:40;;;;;;;14.55;7.70;;;;;;;;;;5069457;28;20074;-65
2023/09/03 04:17:06;;;;;;;9.15;7.10;;;;;;;;;;5069096;28;20040;-65
2023/09/03 04:19:32;;;;;;;8.30;6.88;;;;;;;;;;5068874;28;20036;-65
2023/09/03 04:22:00;;;;;;;8.13;6.53;;;;;;;;;;5069988;28;20032;-65
2023/09/03 04:24:26;;;;;;;7.93;6.28;;;;;;;;;;5070141;28;20036;-65
2023/09/03 04:26:52;;;;;;;9.23;6.85;;;;;;;;;;5088281;28;20032;-65
2023/09/03 04:29:18;;;;;;;8.73;6.72;;;;;;;;;;5089888;28;20056;-65
2023/09/03 04:31:43;;;;;;;7.47;6.45;;;;;;;;;;5090595;28;20058;-65
2023/09/03 04:34:09;;;;;;;7.10;6.40;;;;;;;;;;5090284;28;20490;-65
2023/09/03 04:36:35;;;;;;;7.22;6.15;;;;;;;;;;5089978;28;20105;-65
2023/09/03 04:39:03;;;;;;;6.47;5.60;;;;;;;;;;5090406;28;20032;-65
2023/09/03 04:41:29;;;;;;;7.00;6.30;;;;;;;;;;5090146;28;20096;-65
2023/09/03 04:44:21;;;;;;;8.98;6.82;;;;;;;;;;5091697;28;20447;-65
2023/09/03 04:46:47;;;;;;;9.35;7.30;;;;;;;;;;5094121;28;20055;-65
2023/09/03 04:49:13;;;;;;;7.82;6.88;;;;;;;;;;5094149;28;20397;-65
2023/09/03 04:51:39;;;;;;;7.40;6.63;;;;;;;;;;5094330;28;20044;-65
2023/09/03 04:54:05;;;;;;;7.47;6.30;;;;;;;;;;5073511;28;20417;-65
2023/09/03 04:56:31;;;;;;;8.65;6.38;;;;;;;;;;5074213;28;20036;-65
2023/09/03 04:58:57;;;;;;;8.20;7.00;;;;;;;;;;5073674;28;20385;-65
2023/09/03 05:01:23;;;;;;;7.40;6.35;;;;;;;;;;5072476;28;20323;-65
2023/09/03 05:03:49;;;;;;;11.00;6.70;;;;;;;;;;5072578;28;20067;-65
2023/09/03 05:06:16;;;;;;;7.05;6.30;;;;;;;;;;5073556;28;20056;-65
2023/09/03 05:08:42;;;;;;;10.05;7.60;;;;;;;;;;5073850;28;20036;-65
2023/09/03 05:11:12;;;;;;;9.18;6.63;;;;;;;;;;5073669;28;20270;-65
2023/09/03 05:13:41;;;;;;;9.20;7.30;;;;;;;;;;5073216;28;20048;-65
2023/09/03 05:16:07;;;;;;;9.20;7.05;;;;;;;;;;5073712;28;20502;-65
2023/09/03 05:18:34;;;;;;;8.43;7.07;;;;;;;;;;5073884;28;20040;-65
2023/09/03 05:21:07;;;;;;;8.68;7.35;;;;;;;;;;5073176;28;20127;-65
2023/09/03 05:23:33;;;;;;;10.27;7.22;;;;;;;;;;5073788;28;20052;-65
2023/09/03 05:25:59;;;;;;;8.50;6.75;;;;;;;;;;5084000;28;20044;-65
2023/09/03 05:28:25;;;;;;;9.55;6.90;;;;;;;;;;5091620;28;20044;-65
2023/09/03 05:30:50;;;;;;;8.45;6.60;;;;;;;;;;5092314;28;20432;-65
2023/09/03 05:33:16;;;;;;;8.27;7.00;;;;;;;;;;5093700;28;20043;-65
2023/09/03 05:35:42;;;;;;;8.13;6.78;;;;;;;;;;5092788;28;20044;-65
2023/09/03 05:38:08;;;;;;;7.40;6.28;;;;;;;;;;5093252;28;20046;-65
2023/09/03 05:40:34;;;;;;;9.07;7.05;;;;;;;;;;5093275;28;20040;-65
2023/09/03 05:43:00;;;;;;;7.72;6.82;;;;;;;;;;5093012;28;20036;-65
2023/09/03 05:45:27;;;;;;;8.02;6.60;;;;;;;;;;5075064;28;20040;-65
2023/09/03 05:47:53;;;;;;;8.02;6.65;;;;;;;;;;5074952;28;20052;-65
2023/09/03 05:50:19;;;;;;;9.07;7.22;;;;;;;;;;5091303;28;20066;-65
2023/09/03 05:52:44;;;;;;;9.40;7.53;;;;;;;;;;5085110;28;20476;-65
2023/09/03 05:55:11;;;;;;;10.27;8.25;;;;;;;;;;5071980;28;20090;-65
2023/09/03 05:57:37;;;;;;;9.30;8.10;;;;;;;;;;5072462;28;20115;-65
2023/09/03 06:00:05;;;;;;;9.63;8.23;;;;;;;;;;5073172;28;20503;-65
2023/09/03 06:02:31;;;;;;;9.07;7.80;;;;;;;;;;5072764;28;20045;-65
2023/09/03 06:04:57;;;;;;;11.48;8.10;;;;;;;;;;5072470;28;20123;-65
2023/09/03 06:07:23;;;;;;;9.35;7.78;;;;;;;;;;5073022;28;20118;-65
2023/09/03 06:09:49;;;;;;;10.43;8.02;;;;;;;;;;5072602;28;20044;-65
2023/09/03 06:12:15;;;;;;;9.55;8.20;;;;;;;;;;5072349;28;20479;-65
2023/09/03 06:14:41;;;;;;;11.93;8.35;;;;;;;;;;5072486;28;20372;-65
2023/09/03 06:17:07;;;;;;;10.88;8.35;;;;;;;;;;5072274;28;20115;-65
2023/09/03 06:19:33;;;;;;;8.73;7.82;;;;;;;;;;5071142;28;20106;-65
2023/09/03 06:21:59;;;;;;;10.25;8.38;;;;;;;;;;5072081;28;20044;-65
2023/09/03 06:24:25;;;;;;;9.60;7.70;;;;;;;;;;5072313;28;20040;-65
2023/09/03 06:26:51;;;;;;;11.43;9.10;;;;;;;;;;5090046;28;20078;-65
2023/09/03 06:29:17;;;;;;;10.35;9.05;;;;;;;;;;5091038;28;20056;-65
2023/09/03 06:31:43;;;;;;;11.30;7.75;;;;;;;;;;5092141;28;20058;-65
2023/09/03 06:34:09;;;;;;;9.10;8.20;;;;;;;;;;5090416;28;20050;-65
2023/09/03 06:36:35;;;;;;;11.68;9.40;;;;;;;;;;5092504;28;20485;-65
2023/09/03 06:39:02;;;;;;;11.65;10.25;;;;;;;;;;5092153;28;20040;-65
2023/09/03 06:41:28;;;;;;;10.95;9.48;;;;;;;;;;5091941;28;20362;-65
2023/09/03 06:43:55;;;;;;;9.35;8.30;;;;;;;;;;5090867;28;20476;-65
2023/09/03 06:46:21;;;;;;;10.32;8.48;;;;;;;;;;5090798;28;20387;-65
2023/09/03 06:48:47;;;;;;;12.90;8.98;;;;;;;;;;5090410;28;20093;-65
2023/09/03 06:51:13;;;;;;;10.98;9.60;;;;;;;;;;5092059;28;20528;-65
2023/09/03 06:53:39;;;;;;;13.93;9.85;;;;;;;;;;5076240;28;20120;-65
2023/09/03 06:56:06;;;;;;;12.98;10.45;;;;;;;;;;5071134;28;20124;-65
2023/09/03 06:58:32;;;;;;;11.32;9.50;;;;;;;;;;5071797;28;20045;-65
2023/09/03 07:00:58;;;;;;;10.40;9.32;;;;;;;;;;5070435;28;20147;-65
2023/09/03 07:03:24;;;;;;;13.38;10.68;;;;;;;;;;5070027;28;20303;-65
2023/09/03 07:05:50;;;;;;;12.70;9.57;;;;;;;;;;5071075;28;20550;-65
2023/09/03 07:08:16;;;;;;;13.82;10.90;;;;;;;;;;5071119;28;20399;-65
2023/09/03 07:10:42;;;;;;;13.63;9.27;;;;;;;;;;5069558;28;20044;-65
2023/09/03 07:13:09;;;;;;;14.55;11.32;;;;;;;;;;5070242;28;20040;-65
2023/09/03 07:15:36;;;;;;;12.68;10.48;;;;;;;;;;5071437;28;20036;-65
2023/09/03 07:18:02;;;;;;;11.43;9.68;;;;;;;;;;5071196;28;20340;-65
2023/09/03 07:20:28;;;;;;;10.55;9.15;;;;;;;;;;5071143;28;20036;-65
2023/09/03 07:22:54;;;;;;;16.15;12.13;;;;;;;;;;5071035;28;20043;-65
2023/09/03 07:25:21;;;;;;;13.70;11.38;;;;;;;;;;5075851;28;20040;-65
2023/09/03 07:27:47;;;;;;;12.00;10.68;;;;;;;;;;5091181;28;20032;-65
2023/09/03 07:30:13;;;;;;;9.35;8.45;;;;;;;;;;5089426;28;20055;-65
2023/09/03 07:32:39;;;;;;;9.90;7.85;;;;;;;;;;5091097;28;20044;-65
2023/09/03 07:35:05;;;;;;;12.50;8.40;;;;;;;;;;5091245;28;20410;-65
2023/09/03 07:37:32;;;;;;;10.57;8.13;;;;;;;;;;5072878;28;20044;-65
2023/09/03 07:39:58;;;;;;;12.77;8.70;;;;;;;;;;5072497;28;20043;-65
2023/09/03 07:42:24;;;;;;;16.58;10.40;;;;;;;;;;5089933;28;20554;-65
2023/09/03 07:44:50;;;;;;;12.98;11.50;;;;;;;;;;5090985;28;20068;-65
2023/09/03 07:47:16;;;;;;;17.48;13.68;;;;;;;;;;5089154;28;20072;-65
2023/09/03 07:49:42;;;;;;;9.45;8.45;;;;;;;;;;5090924;28;20135;-65
2023/09/03 07:52:09;;;;;;;12.15;7.32;;;;;;;;;;5087982;28;20490;-65
2023/09/03 07:54:35;;;;;;;9.45;8.27;;;;;;;;;;5069003;28;20106;-65
2023/09/03 07:57:01;;;;;;;9.95;7.35;;;;;;;;;;5069574;28;20033;-65
2023/09/03 07:59:27;;;;;;;11.27;7.53;;;;;;;;;;5070393;28;20040;-65
2023/09/03 08:01:53;;;;;;;6.60;5.18;;;;;;;;;;5070107;28;20055;-65
2023/09/03 08:04:19;;;;;;;6.28;4.47;;;;;;;;;;5070592;28;20081;-65
2023/09/03 08:06:45;;;;;;;7.53;4.85;;;;;;;;;;5069316;28;20260;-65
2023/09/03 08:09:11;;;;;;;7.40;5.05;;;;;;;;;;5070065;28;20036;-65
2023/09/03 08:11:37;;;;;;;7.43;5.15;;;;;;;;;;5070373;28;20048;-65
2023/09/03 08:14:03;;;;;;;8.20;4.80;;;;;;;;;;5070458;28;20086;-65
2023/09/03 08:16:29;;;;;;;6.38;5.35;;;;;;;;;;5070134;28;20044;-65
2023/09/03 08:18:55;;;;;;;9.73;7.03;;;;;;;;;;5069813;28;20037;-65
2023/09/03 08:21:21;;;;;;;7.78;6.13;;;;;;;;;;5070288;28;20048;-65
2023/09/03 08:23:47;;;;;;;10.68;6.57;;;;;;;;;;5070242;28;20037;-65
2023/09/03 08:26:13;;;;;;;6.28;4.82;;;;;;;;;;5082580;28;20044;-65
2023/09/03 08:28:39;;;;;;;7.72;4.45;;;;;;;;;;5089100;28;20052;-65
2023/09/03 08:31:05;;;;;;;6.82;4.68;;;;;;;;;;5090374;28;20066;-65
2023/09/03 08:33:33;;;;;;;10.85;4.32;;;;;;;;;;5090058;28;20470;-65
2023/09/03 08:35:59;;;;;;;4.82;3.83;;;;;;;;;;5090404;28;20105;-65
2023/09/03 08:38:25;;;;;;;4.30;3.22;;;;;;;;;;5089056;28;20127;-65
2023/09/03 08:40:51;;;;;;;8.73;3.70;;;;;;;;;;5088346;28;20040;-65
2023/09/03 08:43:19;;;;;;;8.65;3.33;;;;;;;;;;5088789;28;20040;-65
2023/09/03 08:45:56;;;;;;;6.13;2.83;;;;;;;;;;5090354;28;20047;-65
2023/09/03 08:48:22;;;;;;;4.05;2.92;;;;;;;;;;5089703;28;20124;-65
2023/09/03 08:50:48;;;;;;;7.28;3.70;;;;;;;;;;5090531;28;20040;-65
2023/09/03 08:53:15;;;;;;;5.63;3.40;;;;;;;;;;5077903;28;20040;-65
2023/09/03 08:55:41;;;;;;;4.88;3.03;;;;;;;;;;5068487;28;20041;-65
2023/09/03 08:58:07;;;;;;;5.20;3.15;;;;;;;;;;5068827;28;20045;-65
2023/09/03 09:00:34;;;;;;;5.28;2.85;;;;;;;;;;5069720;28;20041;-65
2023/09/03 09:03:01;;;;;;;4.30;2.83;;;;;;;;;;5068401;28;20037;-65
2023/09/03 09:05:28;;;;;;;6.38;3.40;;;;;;;;;;5051731;28;20048;-65
2023/09/03 09:07:54;;;;;;;5.25;3.10;;;;;;;;;;5068369;28;20055;-65
2023/09/03 09:10:23;;;;;;;5.40;2.33;;;;;;;;;;5069370;28;20146;-65
2023/09/03 09:12:55;;;;;;;5.95;2.25;;;;;;;;;;5068650;28;20138;-65
2023/09/03 09:15:21;;;;;;;3.13;1.88;;;;;;;;;;5069851;28;20043;-65
2023/09/03 09:17:48;;;;;;;5.50;2.58;;;;;;;;;;5069428;28;20112;-65
2023/09/03 09:20:18;;;;;;;2.92;2.03;;;;;;;;;;5069426;28;20049;-65
2023/09/03 09:22:48;;;;;;;3.05;2.30;;;;;;;;;;5069814;28;20486;-65
2023/09/03 09:25:21;;;;;;;3.72;1.95;;;;;;;;;;5073424;28;20121;-65
2023/09/03 09:27:47;;;;;;;2.35;1.88;;;;;;;;;;5089790;28;20047;-65
2023/09/03 09:30:15;;;;;;;3.47;2.08;;;;;;;;;;5091153;28;20056;-65
2023/09/03 09:32:42;;;;;;;5.88;2.10;;;;;;;;;;5093437;28;20387;-65
2023/09/03 09:35:08;;;;;;;4.43;2.20;;;;;;;;;;5093582;28;20498;-65
2023/09/03 09:37:39;;;;;;;4.63;2.30;;;;;;;;;;5093288;28;20124;-65
2023/09/03 09:40:05;;;;;;;3.53;2.00;;;;;;;;;;5091882;28;20071;-65
2023/09/03 09:42:31;;;;;;;5.13;2.10;;;;;;;;;;5093371;28;20036;-65
2023/09/03 09:45:01;;;;;;;3.40;2.45;;;;;;;;;;5093467;28;20035;-65
2023/09/03 09:47:28;;;;;;;4.15;2.20;;;;;;;;;;5092943;28;20074;-65
2023/09/03 09:49:54;;;;;;;3.13;2.20;;;;;;;;;;5093173;28;20040;-65
2023/09/03 09:52:20;;;;;;;4.43;2.20;;;;;;;;;;5088376;28;20067;-65
2023/09/03 09:54:47;;;;;;;6.18;3.20;;;;;;;;;;5072560;28;20398;-65
2023/09/03 09:57:15;;;;;;;3.08;2.47;;;;;;;;;;5072676;28;20076;-65
2023/09/03 09:59:44;;;;;;;3.72;2.58;;;;;;;;;;5072856;28;20036;-65
2023/09/03 10:02:14;;;;;;;3.28;2.38;;;;;;;;;;5072344;28;20040;-65
2023/09/03 10:04:41;;;;;;;3.20;2.20;;;;;;;;;;5071570;28;20097;-65
2023/09/03 10:07:08;;;;;;;3.58;2.17;;;;;;;;;;5072782;28;20049;-65
2023/09/03 10:09:35;;;;;;;3.00;2.40;;;;;;;;;;5072188;28;20048;-65
2023/09/03 10:12:01;;;;;;;3.08;2.20;;;;;;;;;;5071082;28;20069;-65
2023/09/03 10:14:27;;;;;;;5.20;2.60;;;;;;;;;;5072561;28;20487;-65
2023/09/03 10:16:56;;;;;;;3.72;2.40;;;;;;;;;;5071101;28;20048;-65
2023/09/03 10:19:24;;;;;;;2.20;1.90;;;;;;;;;;5072570;28;20105;-65
2023/09/03 10:21:51;;;;;;;3.35;2.05;;;;;;;;;;5072481;28;20368;-65
2023/09/03 10:24:19;;;;;;;4.50;2.25;;;;;;;;;;5071914;28;20041;-65
2023/09/03 10:26:47;;;;;;;3.88;2.00;;;;;;;;;;5088981;28;20043;-65
2023/09/03 10:29:15;;;;;;;2.58;1.70;;;;;;;;;;5092214;28;20056;-65
2023/09/03 10:31:42;;;;;;;3.53;1.80;;;;;;;;;;5090837;28;20047;-65
2023/09/03 10:34:13;;;;;;;3.20;1.70;;;;;;;;;;5092504;28;20040;-65
2023/09/03 10:36:59;;;;;;;4.35;1.60;;;;;;;;;;5091109;28;20309;-65
2023/09/03 10:39:25;;;;;;;5.63;2.33;;;;;;;;;;5091752;28;20040;-65
2023/09/03 10:42:20;;;;;;;6.95;2.10;;;;;;;;;;5092522;28;20032;-65
2023/09/03 10:44:51;;;;;;;4.80;2.08;;;;;;;;;;5090293;28;20056;-65
2023/09/03 10:47:18;;;;;;;2.38;1.63;;;;;;;;;;5092364;28;20394;-65
2023/09/03 10:49:45;;;;;;;1.48;1.35;;;;;;;;;;5091849;28;20067;-65
2023/09/03 10:52:34;;;;;;;5.65;1.65;;;;;;;;;;5087104;28;20502;-65
2023/09/03 10:55:12;;;;;;;3.58;2.00;;;;;;;;;;5071837;28;20045;-65
2023/09/03 10:57:38;;;;;;;4.50;1.63;;;;;;;;;;5071923;28;20048;-65
2023/09/03 11:00:07;;;;;;;3.30;1.50;;;;;;;;;;5071345;28;20479;-65
2023/09/03 11:02:36;;;;;;;3.28;1.52;;;;;;;;;;5071691;28;20063;-65
2023/09/03 11:05:09;;;;;;;5.35;1.58;;;;;;;;;;5070113;28;20084;-65
2023/09/03 11:07:35;;;;;;;4.35;1.58;;;;;;;;;;5071368;28;20047;-65
2023/09/03 11:10:20;;;;;;;4.82;2.20;;;;;;;;;;5069909;28;20052;-65
2023/09/03 11:12:46;;;;;;;3.63;1.70;;;;;;;;;;5071674;28;20036;-65
2023/09/03 11:15:13;;;;;;;2.17;1.50;;;;;;;;;;5070942;28;20052;-65
2023/09/03 11:17:39;;;;;;;2.35;1.42;;;;;;;;;;5070311;28;20049;-65
2023/09/03 11:20:05;;;;;;;2.47;1.60;;;;;;;;;;5071385;28;20364;-65
2023/09/03 11:22:37;;;;;;;2.20;1.42;;;;;;;;;;5071001;28;20055;-65
2023/09/03 11:25:03;;;;;;;2.22;1.70;;;;;;;;;;5072493;28;20054;-65
2023/09/03 11:27:29;;;;;;;3.72;1.98;;;;;;;;;;5090197;28;20085;-65
2023/09/03 11:30:05;;;;;;;2.90;1.65;;;;;;;;;;5089282;28;20056;-65
2023/09/03 11:32:40;;;;;;;3.00;2.10;;;;;;;;;;5091376;28;20062;-65
2023/09/03 11:35:06;;;;;;;3.35;1.50;;;;;;;;;;5091248;28;20040;-63
2023/09/03 11:37:35;;;;;;;1.95;1.50;;;;;;;;;;5090935;28;20043;-63
2023/09/03 11:40:01;;;;;;;4.18;1.60;;;;;;;;;;5091288;28;20043;-63
2023/09/03 11:42:27;;;;;;;3.85;1.23;;;;;;;;;;5091066;28;20437;-63
2023/09/03 11:44:53;;;;;;;4.03;1.50;;;;;;;;;;5089569;28;20039;-65
2023/09/03 11:47:19;;;;;;;4.22;1.52;;;;;;;;;;5089922;28;20079;-65
2023/09/03 11:49:47;;;;;;;1.55;1.25;;;;;;;;;;5091073;28;20112;-65
2023/09/03 11:52:14;;;;;;;2.03;1.27;;;;;;;;;;5085137;28;20045;-65
2023/09/03 11:54:40;;;;;;;2.58;1.20;;;;;;;;;;5069209;28;20055;-65
2023/09/03 11:57:06;;;;;;;5.55;0.98;;;;;;;;;;5070734;28;20047;-65
2023/09/03 11:59:33;;;;;;;2.58;1.65;;;;;;;;;;5070011;28;20036;-65
2023/09/03 12:01:59;;;;;;;1.33;1.23;;;;;;;;;;5070623;28;20040;-65
2023/09/03 12:04:25;;;;;;;2.03;1.15;;;;;;;;;;5070626;28;20040;-65
2023/09/03 12:06:51;;;;;;;3.03;1.25;;;;;;;;;;5069969;28;20044;-65
2023/09/03 12:09:23;;;;;;;3.08;1.25;;;;;;;;;;5069012;28;20055;-65
2023/09/03 12:11:49;;;;;;;2.22;1.20;;;;;;;;;;5070423;28;20048;-65
2023/09/03 12:14:28;;;;;;;1.17;1.05;;;;;;;;;;5068723;28;20084;-65
2023/09/03 12:16:54;;;;;;;1.50;1.00;;;;;;;;;;5069193;28;20502;-65
2023/09/03 12:19:20;;;;;;;2.25;1.05;;;;;;;;;;5070654;28;20037;-65
2023/09/03 12:21:50;;;;;;;1.30;1.10;;;;;;;;;;5068306;28;20040;-65
2023/09/03 12:24:16;;;;;;;2.22;1.00;;;;;;;;;;5035941;28;20124;-65
2023/09/03 12:26:42;;;;;;;2.00;1.13;;;;;;;;;;5086531;28;20048;-65
2023/09/03 12:29:21;;;;;;;1.73;1.27;;;;;;;;;;5089629;28;20444;-65
2023/09/03 12:31:47;;;;;;;2.90;1.50;;;;;;;;;;5089063;28;20083;-65
2023/09/03 12:34:15;;;;;;;2.60;1.15;;;;;;;;;;5088816;28;20137;-65
2023/09/03 12:36:55;;;;;;;5.18;1.40;;;;;;;;;;5088717;28;20056;-65
2023/09/03 12:39:31;;;;;;;1.92;1.10;;;;;;;;;;5088929;28;20076;-66
2023/09/03 12:41:57;;;;;;;2.85;1.33;;;;;;;;;;5090205;28;20436;-66
2023/09/03 12:44:24;;;;;;;1.60;1.20;;;;;;;;;;5088392;28;20048;-66
2023/09/03 12:46:50;;;;;;;1.50;1.23;;;;;;;;;;5071890;28;20132;-66
2023/09/03 12:49:16;;;;;;;2.05;1.35;;;;;;;;;;5090321;28;20460;-66
2023/09/03 12:51:42;;;;;;;3.70;1.13;;;;;;;;;;5090063;28;20044;-66
2023/09/03 12:54:08;;;;;;;2.53;1.10;;;;;;;;;;5070613;28;20106;-66
2023/09/03 12:56:34;;;;;;;2.95;1.30;;;;;;;;;;5070200;28;20560;-66
2023/09/03 12:59:04;;;;;;;2.47;1.17;;;;;;;;;;5068195;28;20120;-66
2023/09/03 13:01:35;;;;;;;2.40;1.23;;;;;;;;;;5069772;28;20294;-66
2023/09/03 13:04:01;;;;;;;1.63;1.15;;;;;;;;;;5052316;28;20119;-66
2023/09/03 13:06:27;;;;;;;2.28;1.27;;;;;;;;;;5073514;28;20523;-66
2023/09/03 13:08:53;;;;;;;3.28;1.30;;;;;;;;;;5072421;28;20055;-66
2023/09/03 13:11:19;;;;;;;2.60;1.27;;;;;;;;;;5073727;28;20426;-66
2023/09/03 13:13:49;;;;;;;1.80;1.25;;;;;;;;;;5073333;28;20544;-66
2023/09/03 13:16:16;;;;;;;2.13;1.17;;;;;;;;;;5073677;28;20072;-66
2023/09/03 13:18:42;;;;;;;1.88;1.23;;;;;;;;;;5073584;28;20040;-65
2023/09/03 13:21:08;;;;;;;2.20;0.90;;;;;;;;;;5073188;28;20101;-65
2023/09/03 13:23:34;;;;;;;1.10;0.90;;;;;;;;;;5073300;28;20048;-65
2023/09/03 13:26:00;;;;;;;1.85;1.00;;;;;;;;;;5084115;28;20044;-65
2023/09/03 13:28:26;;;;;;;1.48;1.05;;;;;;;;;;5091970;28;20126;-65
2023/09/03 13:30:52;;;;;;;1.73;0.80;;;;;;;;;;5093574;28;20055;-65
2023/09/03 13:33:18;;;;;;;1.63;1.13;;;;;;;;;;5093482;28;20032;-65
2023/09/03 13:35:50;;;;;;;2.25;1.08;;;;;;;;;;5093129;28;20056;-66
2023/09/03 13:38:16;;;;;;;1.90;1.20;;;;;;;;;;5092057;28;20050;-66
2023/09/03 13:40:42;;;;;;;1.73;1.00;;;;;;;;;;5091952;28;20415;-66
2023/09/03 13:43:08;;;;;;;1.85;1.15;;;;;;;;;;5091509;28;20032;-66
2023/09/03 13:45:34;;;;;;;1.92;0.80;;;;;;;;;;5093543;28;20063;-66
2023/09/03 13:48:00;;;;;;;2.20;0.90;;;;;;;;;;5093191;28;20048;-66
2023/09/03 13:50:27;;;;;;;1.38;0.90;;;;;;;;;;5091535;28;20056;-66
2023/09/03 13:52:56;;;;;;;3.42;1.00;;;;;;;;;;5083985;28;20040;-66
2023/09/03 13:55:26;;;;;;;1.30;0.70;;;;;;;;;;5054762;28;20052;-66
2023/09/03 13:57:52;;;;;;;1.85;0.82;;;;;;;;;;5072606;28;20033;-66
2023/09/03 14:00:20;;;;;;;2.25;0.90;;;;;;;;;;5071681;28;20491;-66
2023/09/03 14:02:46;;;;;;;1.13;0.80;;;;;;;;;;5072947;28;20463;-66
2023/09/03 14:05:12;;;;;;;1.00;0.88;;;;;;;;;;5072502;28;20106;-66
2023/09/03 14:07:38;;;;;;;2.42;1.17;;;;;;;;;;5072594;28;20036;-66
2023/09/03 14:10:04;;;;;;;1.90;0.90;;;;;;;;;;5072693;28;20036;-66
2023/09/03 14:12:31;;;;;;;1.73;1.00;;;;;;;;;;5072268;28;20124;-66
2023/09/03 14:14:57;;;;;;;0.98;0.73;;;;;;;;;;5071137;28;20076;-66
2023/09/03 14:17:23;;;;;;;2.80;1.10;;;;;;;;;;5071138;28;20040;-66
2023/09/03 14:19:49;;;;;;;2.47;0.90;;;;;;;;;;5070877;28;20038;-66
2023/09/03 14:22:15;;;;;;;1.33;0.85;;;;;;;;;;5071135;28;20532;-65
2023/09/03 14:24:42;;;;;;;4.75;1.08;;;;;;;;;;5071002;28;20044;-65
2023/09/03 14:27:08;;;;;;;1.02;0.77;;;;;;;;;;5091712;28;20039;-65
2023/09/03 14:29:34;;;;;;;1.75;0.65;;;;;;;;;;5090989;28;20574;-65
2023/09/03 14:32:00;;;;;;;0.68;0.68;;;;;;;;;;5092484;28;20040;-65
2023/09/03 14:34:27;;;;;;;1.25;0.70;;;;;;;;;;5090590;28;20530;-65
2023/09/03 14:36:53;;;;;;;0.88;0.80;;;;;;;;;;5092435;28;20051;-65
2023/09/03 14:39:19;;;;;;;1.85;0.70;;;;;;;;;;5090868;28;20101;-65